createdAt,value
2019-01-02T00:00:31.159Z,1021.57
2019-01-02T00:01:31.149Z,1021.59
2019-01-02T00:02:31.144Z,1021.58
2019-01-02T00:03:31.131Z,1021.62
2019-01-02T00:04:31.125Z,1021.66
2019-01-02T00:05:31.113Z,1021.71
2019-01-02T00:06:31.107Z,1021.67
2019-01-02T00:07:31.096Z,1021.64
2019-01-02T00:08:31.089Z,1021.68
2019-01-02T00:09:31.083Z,1021.60
2019-01-02T00:10:31.071Z,1021.65
2019-01-02T00:11:31.061Z,1021.61
2019-01-02T00:12:31.055Z,1021.61
2019-01-02T00:13:31.042Z,1021.56
2019-01-02T00:14:31.036Z,1021.64
2019-01-02T00:15:31.025Z,1021.74
2019-01-02T00:16:31.018Z,1021.80
2019-01-02T00:17:31.007Z,1021.79
2019-01-02T00:18:31.001Z,1021.81
2019-01-02T00:19:30.989Z,1021.82
2019-01-02T00:20:30.984Z,1021.82
2019-01-02T00:21:30.972Z,1021.83
2019-01-02T00:22:30.970Z,1021.80
2019-01-02T00:23:30.954Z,1021.84
2019-01-02T00:24:30.949Z,1021.83
2019-01-02T00:25:30.937Z,1021.84
2019-01-02T00:26:30.930Z,1021.87
2019-01-02T00:27:30.919Z,1021.86
2019-01-02T00:28:30.913Z,1021.95
2019-01-02T00:29:30.903Z,1021.91
2019-01-02T00:30:30.896Z,1021.88
2019-01-02T00:31:30.884Z,1021.83
2019-01-02T00:32:30.879Z,1021.84
2019-01-02T00:33:30.867Z,1021.89
2019-01-02T00:34:30.860Z,1021.92
2019-01-02T00:35:30.849Z,1021.93
2019-01-02T00:36:30.841Z,1021.93
2019-01-02T00:37:30.830Z,1021.93
2019-01-02T00:38:30.828Z,1021.93
2019-01-02T00:39:30.815Z,1021.99
2019-01-02T00:40:30.806Z,1021.96
2019-01-02T00:41:30.795Z,1021.86
2019-01-02T00:42:30.788Z,1021.95
2019-01-02T00:43:30.776Z,1021.94
2019-01-02T00:44:30.770Z,1021.92
2019-01-02T00:45:30.759Z,1021.94
2019-01-02T00:46:30.753Z,1021.96
2019-01-02T00:47:30.742Z,1021.94
2019-01-02T00:48:30.737Z,1021.94
2019-01-02T00:49:30.723Z,1021.91
2019-01-02T00:50:30.717Z,1021.92
2019-01-02T00:51:30.705Z,1021.84
2019-01-02T00:52:30.698Z,1021.88
2019-01-02T00:53:30.688Z,1021.75
2019-01-02T00:54:30.682Z,1021.83
2019-01-02T00:55:30.670Z,1021.81
2019-01-02T00:56:30.663Z,1021.80
2019-01-02T00:57:30.654Z,1021.82
2019-01-02T00:58:30.649Z,1021.83
2019-01-02T00:59:30.634Z,1021.85
2019-01-02T01:00:30.627Z,1021.86
2019-01-02T01:01:30.616Z,1021.89
2019-01-02T01:02:30.614Z,1021.86
2019-01-02T01:03:30.604Z,1021.80
2019-01-02T01:04:30.592Z,1021.86
2019-01-02T01:05:30.581Z,1021.89
2019-01-02T01:06:30.578Z,1021.90
2019-01-02T01:07:30.563Z,1022.00
2019-01-02T01:08:30.556Z,1022.04
2019-01-02T01:09:30.554Z,1022.02
2019-01-02T01:10:30.539Z,1022.00
2019-01-02T01:11:30.527Z,1021.94
2019-01-02T01:12:30.520Z,1021.98
2019-01-02T01:13:30.511Z,1021.95
2019-01-02T01:14:30.504Z,1021.95
2019-01-02T01:15:30.499Z,1022.00
2019-01-02T01:16:30.484Z,1021.95
2019-01-02T01:17:30.473Z,1022.04
2019-01-02T01:18:30.466Z,1021.94
2019-01-02T01:19:30.455Z,1021.99
2019-01-02T01:20:30.458Z,1022.12
2019-01-02T01:21:30.437Z,1022.06
2019-01-02T01:22:30.431Z,1022.15
2019-01-02T01:23:30.419Z,1022.20
2019-01-02T01:24:30.413Z,1022.18
2019-01-02T01:25:30.402Z,1022.23
2019-01-02T01:26:30.395Z,1022.19
2019-01-02T01:27:30.383Z,1022.22
2019-01-02T01:28:30.380Z,1022.21
2019-01-02T01:29:30.401Z,1022.27
2019-01-02T01:30:30.659Z,1022.28
2019-01-02T01:31:30.348Z,1022.33
2019-01-02T01:32:30.341Z,1022.37
2019-01-02T01:33:30.332Z,1022.40
2019-01-02T01:34:30.324Z,1022.34
2019-01-02T01:35:30.312Z,1022.34
2019-01-02T01:36:30.306Z,1022.33
2019-01-02T01:37:30.295Z,1022.39
2019-01-02T01:38:30.302Z,1022.34
2019-01-02T01:39:30.276Z,1022.33
2019-01-02T01:40:30.271Z,1022.38
2019-01-02T01:41:30.259Z,1022.42
2019-01-02T01:42:30.256Z,1022.49
2019-01-02T01:43:30.241Z,1022.49
2019-01-02T01:44:30.238Z,1022.50
2019-01-02T01:45:30.224Z,1022.48
2019-01-02T01:46:30.218Z,1022.47
2019-01-02T01:47:30.206Z,1022.52
2019-01-02T01:48:30.199Z,1022.55
2019-01-02T01:49:30.188Z,1022.52
2019-01-02T01:50:30.183Z,1022.51
2019-01-02T01:51:30.170Z,1022.64
2019-01-02T01:52:30.173Z,1022.59
2019-01-02T01:53:30.153Z,1022.62
2019-01-02T01:54:30.146Z,1022.60
2019-01-02T01:55:30.135Z,1022.80
2019-01-02T01:56:30.128Z,1022.70
2019-01-02T01:57:30.117Z,1022.77
2019-01-02T01:58:30.112Z,1022.79
2019-01-02T01:59:30.099Z,1022.71
2019-01-02T02:00:30.093Z,1022.75
2019-01-02T02:01:30.081Z,1022.68
2019-01-02T02:02:30.075Z,1022.69
2019-01-02T02:03:30.062Z,1022.70
2019-01-02T02:04:30.056Z,1022.55
2019-01-02T02:05:30.050Z,1022.54
2019-01-02T02:06:30.039Z,1022.53
2019-01-02T02:07:30.029Z,1022.57
2019-01-02T02:08:30.022Z,1022.56
2019-01-02T02:09:30.008Z,1022.58
2019-01-02T02:10:30.002Z,1022.54
2019-01-02T02:11:29.991Z,1022.59
2019-01-02T02:12:29.984Z,1022.57
2019-01-02T02:13:29.972Z,1022.59
2019-01-02T02:14:29.966Z,1022.65
2019-01-02T02:15:29.957Z,1022.54
2019-01-02T02:16:29.949Z,1022.51
2019-01-02T02:17:29.938Z,1022.55
2019-01-02T02:18:29.927Z,1022.53
2019-01-02T02:19:29.919Z,1022.62
2019-01-02T02:20:29.910Z,1022.59
2019-01-02T02:21:29.902Z,1022.58
2019-01-02T02:22:29.890Z,1022.57
2019-01-02T02:23:29.883Z,1022.62
2019-01-02T02:24:29.871Z,1022.67
2019-01-02T02:25:29.866Z,1022.63
2019-01-02T02:26:29.856Z,1022.66
2019-01-02T02:27:29.845Z,1022.73
2019-01-02T02:28:29.834Z,1022.73
2019-01-02T02:29:29.827Z,1022.83
2019-01-02T02:30:29.910Z,1022.83
2019-01-02T02:31:29.809Z,1022.84
2019-01-02T02:32:29.799Z,1022.86
2019-01-02T02:33:29.792Z,1022.90
2019-01-02T02:34:29.782Z,1022.89
2019-01-02T02:35:29.773Z,1022.98
2019-01-02T02:36:29.763Z,1022.91
2019-01-02T02:37:29.755Z,1022.95
2019-01-02T02:38:29.744Z,1022.91
2019-01-02T02:39:29.740Z,1022.91
2019-01-02T02:40:29.727Z,1022.90
2019-01-02T02:41:29.719Z,1022.90
2019-01-02T02:42:29.708Z,1022.89
2019-01-02T02:43:29.699Z,1022.88
2019-01-02T02:44:29.689Z,1022.92
2019-01-02T02:45:29.685Z,1022.88
2019-01-02T02:46:29.671Z,1022.93
2019-01-02T02:47:29.665Z,1022.93
2019-01-02T02:48:29.664Z,1022.90
2019-01-02T02:49:29.645Z,1022.94
2019-01-02T02:50:29.661Z,1022.98
2019-01-02T02:51:29.627Z,1022.98
2019-01-02T02:52:29.616Z,1022.93
2019-01-02T02:53:29.611Z,1022.89
2019-01-02T02:54:29.608Z,1022.85
2019-01-02T02:55:29.590Z,1022.89
2019-01-02T02:56:29.579Z,1022.88
2019-01-02T02:57:29.572Z,1022.92
2019-01-02T02:58:29.562Z,1022.86
2019-01-02T02:59:29.554Z,1022.83
2019-01-02T03:00:29.543Z,1022.81
2019-01-02T03:01:29.536Z,1022.80
2019-01-02T03:02:29.525Z,1022.85
2019-01-02T03:03:29.518Z,1022.89
2019-01-02T03:04:29.507Z,1022.87
2019-01-02T03:05:29.501Z,1022.88
2019-01-02T03:06:29.489Z,1022.92
2019-01-02T03:07:29.482Z,1022.85
2019-01-02T03:08:29.471Z,1022.88
2019-01-02T03:09:29.466Z,1022.85
2019-01-02T03:10:29.453Z,1022.88
2019-01-02T03:11:29.446Z,1022.84
2019-01-02T03:12:29.434Z,1022.96
2019-01-02T03:13:29.436Z,1022.90
2019-01-02T03:14:29.417Z,1022.95
2019-01-02T03:15:29.409Z,1022.95
2019-01-02T03:16:29.398Z,1022.96
2019-01-02T03:17:29.392Z,1022.98
2019-01-02T03:18:29.383Z,1023.00
2019-01-02T03:19:29.373Z,1022.95
2019-01-02T03:20:29.363Z,1023.01
2019-01-02T03:21:29.356Z,1023.00
2019-01-02T03:22:29.345Z,1023.03
2019-01-02T03:23:29.338Z,1023.00
2019-01-02T03:24:29.327Z,1023.00
2019-01-02T03:25:29.320Z,1023.00
2019-01-02T03:26:29.309Z,1023.05
2019-01-02T03:27:29.301Z,1023.02
2019-01-02T03:28:29.291Z,1023.07
2019-01-02T03:29:29.285Z,1023.09
2019-01-02T03:30:29.275Z,1023.15
2019-01-02T03:31:29.267Z,1023.15
2019-01-02T03:32:29.258Z,1023.17
2019-01-02T03:33:29.255Z,1023.19
2019-01-02T03:34:29.240Z,1023.14
2019-01-02T03:35:29.234Z,1023.13
2019-01-02T03:36:29.221Z,1023.19
2019-01-02T03:37:29.216Z,1023.19
2019-01-02T03:38:29.203Z,1023.19
2019-01-02T03:39:29.196Z,1023.18
2019-01-02T03:40:29.185Z,1023.25
2019-01-02T03:41:29.179Z,1023.28
2019-01-02T03:42:29.169Z,1023.28
2019-01-02T03:43:29.163Z,1023.28
2019-01-02T03:44:29.150Z,1023.26
2019-01-02T03:45:29.144Z,1023.23
2019-01-02T03:46:29.137Z,1023.21
2019-01-02T03:47:29.129Z,1023.20
2019-01-02T03:48:29.367Z,1023.18
2019-01-02T03:49:29.116Z,1023.22
2019-01-02T03:50:29.099Z,1023.19
2019-01-02T03:51:29.091Z,1023.20
2019-01-02T03:52:29.087Z,1023.22
2019-01-02T03:53:29.074Z,1023.28
2019-01-02T03:54:29.069Z,1023.27
2019-01-02T03:55:29.058Z,1023.26
2019-01-02T03:56:29.047Z,1023.28
2019-01-02T03:57:29.041Z,1023.26
2019-01-02T03:58:29.030Z,1023.34
2019-01-02T03:59:29.022Z,1023.38
2019-01-02T04:00:29.013Z,1023.33
2019-01-02T04:01:29.006Z,1023.34
2019-01-02T04:02:28.995Z,1023.33
2019-01-02T04:03:28.988Z,1023.33
2019-01-02T04:04:28.977Z,1023.37
2019-01-02T04:05:28.971Z,1023.35
2019-01-02T04:06:28.963Z,1023.36
2019-01-02T04:07:28.954Z,1023.40
2019-01-02T04:08:28.943Z,1023.37
2019-01-02T04:09:28.937Z,1023.28
2019-01-02T04:10:28.927Z,1023.34
2019-01-02T04:11:28.921Z,1023.28
2019-01-02T04:12:28.919Z,1023.30
2019-01-02T04:13:28.910Z,1023.23
2019-01-02T04:14:28.893Z,1023.23
2019-01-02T04:15:28.904Z,1023.26
2019-01-02T04:16:28.881Z,1023.30
2019-01-02T04:17:28.888Z,1023.31
2019-01-02T04:18:28.860Z,1023.26
2019-01-02T04:19:28.852Z,1023.24
2019-01-02T04:20:28.855Z,1023.28
2019-01-02T04:21:28.835Z,1023.32
2019-01-02T04:22:28.825Z,1023.28
2019-01-02T04:23:28.828Z,1023.24
2019-01-02T04:24:28.808Z,1023.28
2019-01-02T04:25:28.802Z,1023.32
2019-01-02T04:26:28.791Z,1023.29
2019-01-02T04:27:28.786Z,1023.30
2019-01-02T04:28:28.784Z,1023.32
2019-01-02T04:29:28.776Z,1023.35
2019-01-02T04:30:28.758Z,1023.25
2019-01-02T04:31:28.751Z,1023.30
2019-01-02T04:32:28.742Z,1023.35
2019-01-02T04:33:28.737Z,1023.24
2019-01-02T04:34:28.725Z,1023.35
2019-01-02T04:35:28.726Z,1023.28
2019-01-02T04:36:28.725Z,1023.29
2019-01-02T04:37:28.701Z,1023.31
2019-01-02T04:38:28.692Z,1023.28
2019-01-02T04:39:28.684Z,1023.28
2019-01-02T04:40:28.675Z,1023.27
2019-01-02T04:41:28.669Z,1023.19
2019-01-02T04:42:28.666Z,1023.32
2019-01-02T04:43:28.662Z,1023.35
2019-01-02T04:44:28.641Z,1023.32
2019-01-02T04:45:28.635Z,1023.30
2019-01-02T04:46:28.630Z,1023.37
2019-01-02T04:47:28.618Z,1023.30
2019-01-02T04:48:28.629Z,1023.34
2019-01-02T04:49:28.852Z,1023.36
2019-01-02T04:50:28.591Z,1023.39
2019-01-02T04:51:28.584Z,1023.36
2019-01-02T04:52:28.574Z,1023.35
2019-01-02T04:53:28.568Z,1023.40
2019-01-02T04:54:28.558Z,1023.38
2019-01-02T04:55:28.552Z,1023.39
2019-01-02T04:56:28.557Z,1023.33
2019-01-02T04:57:28.536Z,1023.41
2019-01-02T04:58:28.525Z,1023.34
2019-01-02T04:59:28.519Z,1023.32
2019-01-02T05:00:28.508Z,1023.40
2019-01-02T05:01:28.507Z,1023.37
2019-01-02T05:02:28.494Z,1023.40
2019-01-02T05:03:28.485Z,1023.42
2019-01-02T05:04:28.501Z,1023.38
2019-01-02T05:05:28.472Z,1023.49
2019-01-02T05:06:28.460Z,1023.48
2019-01-02T05:07:28.452Z,1023.47
2019-01-02T05:08:28.443Z,1023.47
2019-01-02T05:09:28.438Z,1023.45
2019-01-02T05:10:28.429Z,1023.43
2019-01-02T05:11:28.421Z,1023.45
2019-01-02T05:12:28.431Z,1023.51
2019-01-02T05:13:28.404Z,1023.49
2019-01-02T05:14:28.394Z,1023.50
2019-01-02T05:15:28.395Z,1023.51
2019-01-02T05:16:28.396Z,1023.54
2019-01-02T05:17:28.371Z,1023.57
2019-01-02T05:18:28.361Z,1023.57
2019-01-02T05:19:28.607Z,1023.62
2019-01-02T05:20:28.365Z,1023.67
2019-01-02T05:21:28.342Z,1023.62
2019-01-02T05:22:28.333Z,1023.69
2019-01-02T05:23:28.332Z,1023.69
2019-01-02T05:24:28.311Z,1023.73
2019-01-02T05:25:28.305Z,1023.79
2019-01-02T05:26:28.298Z,1023.82
2019-01-02T05:27:28.288Z,1023.76
2019-01-02T05:28:28.286Z,1023.77
2019-01-02T05:29:28.272Z,1023.79
2019-01-02T05:30:28.262Z,1023.82
2019-01-02T05:31:28.255Z,1023.87
2019-01-02T05:32:28.245Z,1023.77
2019-01-02T05:33:28.240Z,1023.84
2019-01-02T05:34:28.242Z,1023.94
2019-01-02T05:35:28.223Z,1023.87
2019-01-02T05:36:28.214Z,1023.85
2019-01-02T05:37:28.205Z,1023.96
2019-01-02T05:38:28.196Z,1023.94
2019-01-02T05:39:28.234Z,1023.93
2019-01-02T05:40:28.187Z,1023.98
2019-01-02T05:41:28.172Z,1024.01
2019-01-02T05:42:28.174Z,1023.92
2019-01-02T05:43:28.155Z,1023.94
2019-01-02T05:44:28.236Z,1023.91
2019-01-02T05:45:28.139Z,1023.92
2019-01-02T05:46:28.129Z,1023.98
2019-01-02T05:47:28.122Z,1023.94
2019-01-02T05:48:28.132Z,1023.94
2019-01-02T05:49:28.105Z,1023.98
2019-01-02T05:50:28.095Z,1023.98
2019-01-02T05:51:28.089Z,1023.95
2019-01-02T05:52:28.104Z,1023.95
2019-01-02T05:53:28.078Z,1023.99
2019-01-02T05:54:28.061Z,1024.07
2019-01-02T05:55:28.055Z,1024.04
2019-01-02T05:56:28.044Z,1024.01
2019-01-02T05:57:28.038Z,1024.07
2019-01-02T05:58:28.029Z,1024.12
2019-01-02T05:59:28.021Z,1024.12
2019-01-02T06:00:28.255Z,1024.16
2019-01-02T06:01:28.005Z,1024.23
2019-01-02T06:02:27.994Z,1024.14
2019-01-02T06:03:27.987Z,1024.16
2019-01-02T06:04:27.983Z,1024.15
2019-01-02T06:05:27.987Z,1024.14
2019-01-02T06:06:27.960Z,1024.20
2019-01-02T06:07:27.959Z,1024.14
2019-01-02T06:08:27.981Z,1024.19
2019-01-02T06:09:27.936Z,1024.21
2019-01-02T06:10:27.932Z,1024.23
2019-01-02T06:11:27.918Z,1024.25
2019-01-02T06:12:27.923Z,1024.20
2019-01-02T06:13:27.916Z,1024.30
2019-01-02T06:14:27.912Z,1024.32
2019-01-02T06:15:27.893Z,1024.32
2019-01-02T06:16:27.873Z,1024.23
2019-01-02T06:17:27.867Z,1024.25
2019-01-02T06:18:27.857Z,1024.28
2019-01-02T06:19:27.859Z,1024.24
2019-01-02T06:20:27.838Z,1024.33
2019-01-02T06:21:27.860Z,1024.33
2019-01-02T06:22:27.833Z,1024.30
2019-01-02T06:23:27.828Z,1024.31
2019-01-02T06:24:27.870Z,1024.30
2019-01-02T06:25:27.809Z,1024.35
2019-01-02T06:26:27.788Z,1024.35
2019-01-02T06:27:27.781Z,1024.33
2019-01-02T06:28:27.769Z,1024.35
2019-01-02T06:29:27.762Z,1024.33
2019-01-02T06:30:27.751Z,1024.37
2019-01-02T06:31:27.744Z,1024.39
2019-01-02T06:32:27.747Z,1024.39
2019-01-02T06:33:27.741Z,1024.45
2019-01-02T06:34:27.755Z,1024.47
2019-01-02T06:35:27.716Z,1024.45
2019-01-02T06:36:27.701Z,1024.45
2019-01-02T06:37:27.690Z,1024.42
2019-01-02T06:38:27.686Z,1024.44
2019-01-02T06:39:27.677Z,1024.44
2019-01-02T06:40:27.688Z,1024.49
2019-01-02T06:41:27.657Z,1024.51
2019-01-02T06:42:27.651Z,1024.51
2019-01-02T06:43:27.637Z,1024.49
2019-01-02T06:44:27.632Z,1024.54
2019-01-02T06:45:27.621Z,1024.53
2019-01-02T06:46:27.615Z,1024.50
2019-01-02T06:47:27.613Z,1024.50
2019-01-02T06:48:27.876Z,1024.50
2019-01-02T06:49:27.586Z,1024.52
2019-01-02T06:50:27.579Z,1024.50
2019-01-02T06:51:27.568Z,1024.46
2019-01-02T06:52:27.572Z,1024.48
2019-01-02T06:53:27.558Z,1024.54
2019-01-02T06:54:27.545Z,1024.54
2019-01-02T06:55:27.552Z,1024.54
2019-01-02T06:56:27.564Z,1024.58
2019-01-02T06:57:27.517Z,1024.57
2019-01-02T06:58:27.511Z,1024.59
2019-01-02T06:59:27.500Z,1024.59
2019-01-02T07:00:27.507Z,1024.63
2019-01-02T07:01:27.483Z,1024.61
2019-01-02T07:02:27.476Z,1024.66
2019-01-02T07:03:27.480Z,1024.68
2019-01-02T07:04:27.813Z,1024.70
2019-01-02T07:05:27.469Z,1024.70
2019-01-02T07:06:27.444Z,1024.71
2019-01-02T07:07:31.227Z,1024.74
2019-01-02T07:08:27.424Z,1024.74
2019-01-02T07:09:27.414Z,1024.78
2019-01-02T07:10:27.407Z,1024.81
2019-01-02T07:11:27.399Z,1024.83
2019-01-02T07:12:27.561Z,1024.84
2019-01-02T07:13:27.379Z,1024.74
2019-01-02T07:14:27.372Z,1024.79
2019-01-02T07:15:27.361Z,1024.77
2019-01-02T07:16:27.354Z,1024.81
2019-01-02T07:17:27.352Z,1024.79
2019-01-02T07:18:27.337Z,1024.82
2019-01-02T07:19:27.325Z,1024.80
2019-01-02T07:20:27.806Z,1024.82
2019-01-02T07:21:27.309Z,1024.83
2019-01-02T07:22:27.301Z,1024.83
2019-01-02T07:23:27.290Z,1024.80
2019-01-02T07:24:27.293Z,1024.88
2019-01-02T07:25:27.283Z,1024.89
2019-01-02T07:26:27.266Z,1024.90
2019-01-02T07:27:27.254Z,1024.93
2019-01-02T07:28:27.562Z,1024.95
2019-01-02T07:29:27.247Z,1025.00
2019-01-02T07:30:27.241Z,1024.96
2019-01-02T07:31:27.219Z,1024.98
2019-01-02T07:32:27.212Z,1025.05
2019-01-02T07:33:27.201Z,1025.06
2019-01-02T07:34:27.198Z,1025.13
2019-01-02T07:35:27.187Z,1025.15
2019-01-02T07:36:27.492Z,1025.17
2019-01-02T07:37:27.194Z,1025.21
2019-01-02T07:38:27.159Z,1025.24
2019-01-02T07:39:27.148Z,1025.29
2019-01-02T07:40:27.142Z,1025.29
2019-01-02T07:41:27.143Z,1025.31
2019-01-02T07:42:27.138Z,1025.30
2019-01-02T07:43:27.112Z,1025.32
2019-01-02T07:44:27.114Z,1025.39
2019-01-02T07:45:27.096Z,1025.42
2019-01-02T07:46:27.102Z,1025.40
2019-01-02T07:47:27.088Z,1025.39
2019-01-02T07:48:27.078Z,1025.42
2019-01-02T07:49:27.061Z,1025.39
2019-01-02T07:50:27.054Z,1025.42
2019-01-02T07:51:27.052Z,1025.41
2019-01-02T07:52:27.054Z,1025.37
2019-01-02T07:53:27.024Z,1025.40
2019-01-02T07:54:27.027Z,1025.40
2019-01-02T07:55:27.017Z,1025.42
2019-01-02T07:56:27.024Z,1025.43
2019-01-02T07:57:26.988Z,1025.41
2019-01-02T07:58:26.981Z,1025.45
2019-01-02T07:59:26.969Z,1025.46
2019-01-02T08:00:26.963Z,1025.47
2019-01-02T08:01:26.954Z,1025.46
2019-01-02T08:02:26.955Z,1025.49
2019-01-02T08:03:26.935Z,1025.50
2019-01-02T08:04:26.927Z,1025.48
2019-01-02T08:05:26.918Z,1025.48
2019-01-02T08:06:26.909Z,1025.49
2019-01-02T08:07:26.897Z,1025.49
2019-01-02T08:08:26.899Z,1025.46
2019-01-02T08:09:26.881Z,1025.50
2019-01-02T08:10:27.436Z,1025.53
2019-01-02T08:11:26.862Z,1025.54
2019-01-02T08:12:26.856Z,1025.56
2019-01-02T08:13:26.845Z,1025.61
2019-01-02T08:14:26.838Z,1025.67
2019-01-02T08:15:26.841Z,1025.70
2019-01-02T08:16:26.828Z,1025.75
2019-01-02T08:17:26.829Z,1025.72
2019-01-02T08:18:26.802Z,1025.80
2019-01-02T08:19:26.791Z,1025.81
2019-01-02T08:20:26.787Z,1025.82
2019-01-02T08:21:26.783Z,1025.85
2019-01-02T08:22:26.767Z,1025.80
2019-01-02T08:23:26.778Z,1025.83
2019-01-02T08:24:26.750Z,1025.83
2019-01-02T08:25:26.739Z,1025.80
2019-01-02T08:26:26.733Z,1025.82
2019-01-02T08:27:26.721Z,1025.86
2019-01-02T08:28:26.734Z,1025.90
2019-01-02T08:29:26.707Z,1025.93
2019-01-02T08:30:26.702Z,1025.93
2019-01-02T08:31:26.704Z,1025.92
2019-01-02T08:32:26.683Z,1025.89
2019-01-02T08:33:26.679Z,1025.92
2019-01-02T08:34:26.669Z,1025.96
2019-01-02T08:35:26.667Z,1026.03
2019-01-02T08:36:26.647Z,1026.04
2019-01-02T08:37:26.636Z,1026.09
2019-01-02T08:38:26.644Z,1026.07
2019-01-02T08:39:26.618Z,1026.08
2019-01-02T08:40:26.613Z,1026.11
2019-01-02T08:41:26.614Z,1026.16
2019-01-02T08:42:26.596Z,1026.16
2019-01-02T08:43:26.596Z,1026.19
2019-01-02T08:44:26.579Z,1026.23
2019-01-02T08:45:26.569Z,1026.20
2019-01-02T08:46:26.565Z,1026.27
2019-01-02T08:47:26.555Z,1026.19
2019-01-02T08:48:26.556Z,1026.18
2019-01-02T08:49:26.533Z,1026.24
2019-01-02T08:50:26.532Z,1026.22
2019-01-02T08:51:26.519Z,1026.29
2019-01-02T08:52:26.522Z,1026.25
2019-01-02T08:53:26.515Z,1026.30
2019-01-02T08:54:26.507Z,1026.30
2019-01-02T08:55:26.483Z,1026.28
2019-01-02T08:56:26.478Z,1026.32
2019-01-02T08:57:26.467Z,1026.38
2019-01-02T08:58:26.460Z,1026.37
2019-01-02T08:59:26.454Z,1026.35
2019-01-02T09:00:26.449Z,1026.38
2019-01-02T09:01:26.432Z,1026.39
2019-01-02T09:02:26.426Z,1026.45
2019-01-02T09:03:26.415Z,1026.44
2019-01-02T09:04:26.412Z,1026.49
2019-01-02T09:05:26.650Z,1026.49
2019-01-02T09:06:26.393Z,1026.49
2019-01-02T09:07:26.381Z,1026.56
2019-01-02T09:08:26.377Z,1026.54
2019-01-02T09:09:26.367Z,1026.56
2019-01-02T09:10:26.359Z,1026.55
2019-01-02T09:11:26.355Z,1026.54
2019-01-02T09:12:26.342Z,1026.65
2019-01-02T09:13:26.342Z,1026.59
2019-01-02T09:14:26.325Z,1026.64
2019-01-02T09:15:26.314Z,1026.62
2019-01-02T09:16:26.308Z,1026.67
2019-01-02T09:17:26.313Z,1026.72
2019-01-02T09:18:26.294Z,1026.69
2019-01-02T09:19:26.292Z,1026.72
2019-01-02T09:20:26.275Z,1026.77
2019-01-02T09:21:26.266Z,1026.78
2019-01-02T09:22:26.258Z,1026.79
2019-01-02T09:23:26.249Z,1026.83
2019-01-02T09:24:26.247Z,1026.87
2019-01-02T09:25:26.237Z,1026.85
2019-01-02T09:26:26.226Z,1026.88
2019-01-02T09:27:26.215Z,1026.85
2019-01-02T09:28:26.215Z,1026.81
2019-01-02T09:29:26.200Z,1026.79
2019-01-02T09:30:26.212Z,1026.76
2019-01-02T09:31:26.192Z,1026.80
2019-01-02T09:32:26.177Z,1026.85
2019-01-02T09:33:26.166Z,1026.81
2019-01-02T09:34:26.168Z,1026.87
2019-01-02T09:35:26.150Z,1026.87
2019-01-02T09:36:26.144Z,1026.88
2019-01-02T09:37:26.133Z,1026.86
2019-01-02T09:38:26.132Z,1026.94
2019-01-02T09:39:26.137Z,1026.93
2019-01-02T09:40:26.130Z,1026.99
2019-01-02T09:41:26.101Z,1026.97
2019-01-02T09:42:26.096Z,1026.99
2019-01-02T09:43:26.084Z,1026.98
2019-01-02T09:44:26.086Z,1027.01
2019-01-02T09:45:26.081Z,1027.02
2019-01-02T09:46:26.092Z,1027.08
2019-01-02T09:47:26.117Z,1027.06
2019-01-02T09:48:26.048Z,1027.06
2019-01-02T09:49:26.039Z,1027.02
2019-01-02T09:50:26.031Z,1027.09
2019-01-02T09:51:26.019Z,1027.14
2019-01-02T09:52:26.014Z,1027.08
2019-01-02T09:53:26.005Z,1027.10
2019-01-02T09:54:25.997Z,1027.12
2019-01-02T09:55:25.984Z,1027.10
2019-01-02T09:56:25.979Z,1027.10
2019-01-02T09:57:25.969Z,1027.11
2019-01-02T09:58:25.967Z,1027.15
2019-01-02T09:59:25.954Z,1027.13
2019-01-02T10:00:25.946Z,1027.14
2019-01-02T10:01:25.936Z,1027.17
2019-01-02T10:02:25.931Z,1027.23
2019-01-02T10:03:25.920Z,1027.24
2019-01-02T10:04:25.925Z,1027.23
2019-01-02T10:05:25.905Z,1027.21
2019-01-02T10:06:25.899Z,1027.26
2019-01-02T10:07:25.890Z,1027.23
2019-01-02T10:08:25.882Z,1027.22
2019-01-02T10:09:25.873Z,1027.22
2019-01-02T10:10:25.869Z,1027.25
2019-01-02T10:11:25.854Z,1027.26
2019-01-02T10:12:25.850Z,1027.25
2019-01-02T10:13:25.839Z,1027.26
2019-01-02T10:14:25.832Z,1027.21
2019-01-02T10:15:25.823Z,1027.28
2019-01-02T10:16:25.816Z,1027.28
2019-01-02T10:17:25.807Z,1027.26
2019-01-02T10:18:25.804Z,1027.20
2019-01-02T10:19:25.791Z,1027.24
2019-01-02T10:20:25.785Z,1027.24
2019-01-02T10:21:25.776Z,1027.22
2019-01-02T10:22:25.769Z,1027.24
2019-01-02T10:23:25.758Z,1027.23
2019-01-02T10:24:25.755Z,1027.20
2019-01-02T10:25:25.744Z,1027.23
2019-01-02T10:26:25.737Z,1027.31
2019-01-02T10:27:25.765Z,1027.27
2019-01-02T10:28:25.720Z,1027.26
2019-01-02T10:29:25.712Z,1027.21
2019-01-02T10:30:25.705Z,1027.27
2019-01-02T10:31:25.694Z,1027.29
2019-01-02T10:32:25.689Z,1027.23
2019-01-02T10:33:25.680Z,1027.29
2019-01-02T10:34:25.678Z,1027.30
2019-01-02T10:35:25.665Z,1027.31
2019-01-02T10:36:25.657Z,1027.32
2019-01-02T10:37:25.648Z,1027.28
2019-01-02T10:38:25.642Z,1027.28
2019-01-02T10:39:25.631Z,1027.28
2019-01-02T10:40:25.626Z,1027.32
2019-01-02T10:41:25.617Z,1027.29
2019-01-02T10:42:25.612Z,1027.37
2019-01-02T10:43:25.600Z,1027.41
2019-01-02T10:44:25.595Z,1027.35
2019-01-02T10:45:25.589Z,1027.45
2019-01-02T10:46:25.580Z,1027.43
2019-01-02T10:47:25.570Z,1027.38
2019-01-02T10:48:25.565Z,1027.40
2019-01-02T10:49:25.557Z,1027.42
2019-01-02T10:50:25.551Z,1027.46
2019-01-02T10:51:25.541Z,1027.45
2019-01-02T10:52:25.532Z,1027.44
2019-01-02T10:53:25.679Z,1027.47
2019-01-02T10:54:25.518Z,1027.51
2019-01-02T10:55:25.511Z,1027.49
2019-01-02T10:56:25.502Z,1027.53
2019-01-02T10:57:25.500Z,1027.50
2019-01-02T10:58:25.488Z,1027.45
2019-01-02T10:59:25.484Z,1027.50
2019-01-02T11:00:25.473Z,1027.46
2019-01-02T11:01:25.467Z,1027.47
2019-01-02T11:02:25.459Z,1027.52
2019-01-02T11:03:25.452Z,1027.41
2019-01-02T11:04:25.453Z,1027.48
2019-01-02T11:05:25.440Z,1027.51
2019-01-02T11:06:25.430Z,1027.57
2019-01-02T11:07:25.424Z,1027.47
2019-01-02T11:08:25.414Z,1027.54
2019-01-02T11:09:25.410Z,1027.54
2019-01-02T11:10:25.400Z,1027.52
2019-01-02T11:11:25.394Z,1027.50
2019-01-02T11:12:25.635Z,1027.48
2019-01-02T11:13:25.381Z,1027.57
2019-01-02T11:14:25.371Z,1027.51
2019-01-02T11:15:26.659Z,1027.53
2019-01-02T11:16:25.357Z,1027.54
2019-01-02T11:17:25.351Z,1027.41
2019-01-02T11:18:25.342Z,1027.49
2019-01-02T11:19:25.336Z,1027.51
2019-01-02T11:20:25.337Z,1027.51
2019-01-02T11:21:25.322Z,1027.52
2019-01-02T11:22:25.313Z,1027.47
2019-01-02T11:23:25.308Z,1027.50
2019-01-02T11:24:25.298Z,1027.51
2019-01-02T11:25:25.294Z,1027.49
2019-01-02T11:26:25.284Z,1027.50
2019-01-02T11:27:25.281Z,1027.55
2019-01-02T11:28:25.269Z,1027.52
2019-01-02T11:29:25.265Z,1027.52
2019-01-02T11:30:25.256Z,1027.61
2019-01-02T11:31:25.252Z,1027.59
2019-01-02T11:32:25.251Z,1027.60
2019-01-02T11:33:25.237Z,1027.47
2019-01-02T11:34:25.245Z,1027.64
2019-01-02T11:35:25.222Z,1027.55
2019-01-02T11:36:25.213Z,1027.66
2019-01-02T11:37:25.209Z,1027.47
2019-01-02T11:38:25.199Z,1027.65
2019-01-02T11:39:25.221Z,1027.48
2019-01-02T11:40:25.188Z,1027.66
2019-01-02T11:41:25.183Z,1027.64
2019-01-02T11:42:25.173Z,1027.69
2019-01-02T11:43:25.167Z,1027.66
2019-01-02T11:44:25.158Z,1027.71
2019-01-02T11:45:25.157Z,1027.70
2019-01-02T11:46:25.150Z,1027.69
2019-01-02T11:47:25.142Z,1027.70
2019-01-02T11:48:25.134Z,1027.67
2019-01-02T11:49:25.134Z,1027.71
2019-01-02T11:50:25.123Z,1027.69
2019-01-02T11:51:25.119Z,1027.63
2019-01-02T11:52:25.111Z,1027.63
2019-01-02T11:53:25.109Z,1027.68
2019-01-02T11:54:25.101Z,1027.67
2019-01-02T11:55:25.098Z,1027.67
2019-01-02T11:56:25.091Z,1027.65
2019-01-02T11:57:25.090Z,1027.72
2019-01-02T11:58:25.081Z,1027.68
2019-01-02T11:59:25.079Z,1027.73
2019-01-02T12:00:25.073Z,1027.68
2019-01-02T12:01:25.068Z,1027.70
2019-01-02T12:02:25.061Z,1027.67
2019-01-02T12:03:25.057Z,1027.67
2019-01-02T12:04:25.049Z,1027.66
2019-01-02T12:05:25.047Z,1027.70